createdAt,value
2023-04-02T00:09:15.954Z,99989.80
2023-04-02T00:14:33.618Z,99992.40
2023-04-02T00:25:19.038Z,100009.20
2023-04-02T00:30:22.937Z,100007.80
2023-04-02T00:35:29.076Z,100021.20
2023-04-02T00:40:42.382Z,100023.20
2023-04-02T00:45:56.986Z,100029.80
2023-04-02T00:51:14.573Z,100029.60
2023-04-02T00:56:27.404Z,100032.20
2023-04-02T01:01:37.826Z,100045.20
2023-04-02T01:06:43.870Z,100042.60
2023-04-02T01:12:32.050Z,100051.20
2023-04-02T01:18:13.683Z,100056.00
2023-04-02T01:24:08.150Z,100061.40
2023-04-02T01:29:29.277Z,100067.00
2023-04-02T01:34:33.262Z,100073.20
2023-04-02T01:40:08.642Z,100074.00
2023-04-02T01:45:17.122Z,100082.40
2023-04-02T01:50:19.629Z,100078.20
2023-04-02T01:55:44.405Z,100085.40
2023-04-02T02:00:55.805Z,100094.00
2023-04-02T02:06:03.975Z,100100.40
2023-04-02T02:11:14.223Z,100105.00
2023-04-02T02:16:18.127Z,100108.80
2023-04-02T02:21:50.567Z,100115.60
2023-04-02T02:27:16.529Z,100119.00
2023-04-02T02:32:23.987Z,100125.60
2023-04-02T02:37:34.967Z,100124.20
2023-04-02T02:42:49.542Z,100132.80
2023-04-02T02:47:57.731Z,100134.60
2023-04-02T02:53:17.035Z,100140.60
2023-04-02T02:58:27.977Z,100147.60
2023-04-02T03:03:34.614Z,100145.60
2023-04-02T03:09:04.437Z,100154.60
2023-04-02T03:14:24.081Z,100157.60
2023-04-02T03:20:01.525Z,100166.80
2023-04-02T03:25:37.159Z,100176.40
2023-04-02T03:31:04.188Z,100188.40
2023-04-02T03:36:19.005Z,100199.00
2023-04-02T03:41:42.816Z,100204.40
2023-04-02T03:46:58.915Z,100214.00
2023-04-02T03:52:14.970Z,100227.60
2023-04-02T03:57:38.389Z,100238.20
2023-04-02T04:02:52.565Z,100249.00
2023-04-02T04:08:06.399Z,100249.60
2023-04-02T04:13:20.347Z,100254.00
2023-04-02T04:18:41.023Z,100259.00
2023-04-02T04:23:51.011Z,100269.60
2023-04-02T04:29:24.856Z,100275.80
2023-04-02T04:34:47.279Z,100275.40
2023-04-02T04:39:59.253Z,100282.80
2023-04-02T04:45:12.472Z,100296.80
2023-04-02T04:50:30.326Z,100296.20
2023-04-02T04:56:18.675Z,100310.00
2023-04-02T05:01:44.391Z,100315.80
2023-04-02T05:07:15.655Z,100323.60
2023-04-02T05:12:42.305Z,100331.80
2023-04-02T05:18:30.502Z,100336.80
2023-04-02T05:24:05.027Z,100353.00
2023-04-02T05:29:26.615Z,100349.00
2023-04-02T05:34:39.137Z,100355.40
2023-04-02T05:39:46.006Z,100360.00
2023-04-02T05:45:26.991Z,100361.80
2023-04-02T05:50:37.506Z,100372.00
2023-04-02T05:56:01.657Z,100378.60
2023-04-02T06:01:17.941Z,100383.80
2023-04-02T06:06:46.617Z,100384.40
2023-04-02T06:12:13.451Z,100393.40
2023-04-02T06:17:19.401Z,100400.60
2023-04-02T06:22:38.406Z,100399.60
2023-04-02T06:27:44.200Z,100411.80
2023-04-02T06:32:48.886Z,100423.00
2023-04-02T06:37:57.471Z,100430.40
2023-04-02T06:43:11.767Z,100434.80
2023-04-02T06:48:22.115Z,100441.80
2023-04-02T06:53:36.880Z,100446.40
2023-04-02T06:58:39.495Z,100453.60
2023-04-02T07:03:44.066Z,100459.00
2023-04-02T07:08:48.086Z,100463.80
2023-04-02T07:13:51.058Z,100474.20
2023-04-02T07:18:56.966Z,100487.80
2023-04-02T07:23:59.540Z,100491.60
2023-04-02T07:29:08.255Z,100490.40
2023-04-02T07:34:11.251Z,100504.40
2023-04-02T07:39:16.568Z,100509.40
2023-04-02T07:44:19.502Z,100514.80
2023-04-02T07:49:26.749Z,100520.20
2023-04-02T07:54:33.610Z,100520.40
2023-04-02T07:59:36.472Z,100525.60
2023-04-02T08:04:39.140Z,100529.00
2023-04-02T08:09:41.701Z,100532.40
2023-04-02T08:14:44.472Z,100540.20
2023-04-02T08:19:55.189Z,100552.20
2023-04-02T08:24:58.231Z,100558.20
2023-04-02T08:30:01.066Z,100568.80
2023-04-02T08:35:06.271Z,100578.00
2023-04-02T08:40:31.067Z,100581.40
2023-04-02T08:46:22.086Z,100588.20
2023-04-02T08:51:30.778Z,100597.80
2023-04-02T08:56:47.148Z,100607.40
2023-04-02T09:02:39.496Z,100611.00
2023-04-02T09:07:42.432Z,100612.00
2023-04-02T09:12:52.452Z,100625.00
2023-04-02T09:18:11.811Z,100637.20
2023-04-02T09:23:21.022Z,100639.60
2023-04-02T09:28:24.384Z,100654.40
2023-04-02T09:33:48.989Z,100656.60
2023-04-02T09:39:06.428Z,100670.60
2023-04-02T09:44:30.376Z,100675.60
2023-04-02T09:49:37.943Z,100684.80
2023-04-02T09:54:43.426Z,100690.20
2023-04-02T09:59:47.569Z,100695.60
2023-04-02T10:04:50.986Z,100702.20
2023-04-02T10:10:29.209Z,100713.80
2023-04-02T10:15:42.440Z,100716.60
2023-04-02T10:20:52.036Z,100724.60
2023-04-02T10:26:50.372Z,100722.00
2023-04-02T10:32:14.518Z,100726.80
2023-04-02T10:37:53.073Z,100721.20
2023-04-02T10:43:36.595Z,100729.60
2023-04-02T10:49:27.706Z,100733.80
2023-04-02T10:54:44.063Z,100744.80
2023-04-02T10:59:56.308Z,100749.40
2023-04-02T11:05:07.195Z,100741.40
2023-04-02T11:10:19.642Z,100758.00
2023-04-02T11:15:38.130Z,100766.40
2023-04-02T11:20:50.147Z,100773.40
2023-04-02T11:26:28.382Z,100782.80
2023-04-02T11:31:32.668Z,100779.80
2023-04-02T11:36:53.769Z,100785.40
2023-04-02T11:42:21.424Z,100789.20
2023-04-02T11:47:29.911Z,100808.20
2023-04-02T11:52:45.422Z,100812.40
2023-04-02T11:58:20.666Z,100818.00
2023-04-02T12:03:59.159Z,100815.80
2023-04-02T12:09:22.582Z,100829.60
2023-04-02T12:14:46.288Z,100842.40
2023-04-02T12:19:52.771Z,100841.60
2023-04-02T12:25:18.188Z,100844.00
2023-04-02T12:30:23.642Z,100859.00
2023-04-02T12:35:34.041Z,100868.20
2023-04-02T12:40:38.847Z,100866.20
2023-04-02T12:45:41.594Z,100862.80
2023-04-02T12:50:47.894Z,100866.00
2023-04-02T12:55:53.217Z,100880.00
2023-04-02T13:01:20.497Z,100886.60
2023-04-02T13:06:27.178Z,100894.40
2023-04-02T13:11:38.380Z,100903.20
2023-04-02T13:17:08.288Z,100908.80
2023-04-02T13:22:31.766Z,100919.20
2023-04-02T13:27:34.561Z,100926.20
2023-04-02T13:32:39.318Z,100935.40
2023-04-02T13:37:42.001Z,100934.20
2023-04-02T13:42:47.073Z,100943.80
2023-04-02T13:47:50.654Z,100941.00
2023-04-02T13:52:57.815Z,100948.80
2023-04-02T13:58:00.671Z,100952.20
2023-04-02T14:03:13.058Z,100947.00
2023-04-02T14:09:09.389Z,100959.40
2023-04-02T14:14:42.792Z,100963.40
2023-04-02T14:20:14.180Z,100978.00
2023-04-02T14:26:02.080Z,100979.40
2023-04-02T14:31:43.406Z,100983.60
2023-04-02T14:37:34.831Z,100986.00
2023-04-02T14:43:03.168Z,100992.60
2023-04-02T14:48:21.236Z,101001.60
2023-04-02T14:53:37.441Z,101004.80
2023-04-02T14:58:48.748Z,101018.40
2023-04-02T15:04:06.563Z,101014.20
2023-04-02T15:09:26.003Z,101011.40
2023-04-02T15:15:01.228Z,101017.20
2023-04-02T15:20:15.954Z,101029.40
2023-04-02T15:25:42.250Z,101033.20
2023-04-02T15:30:47.167Z,101039.60
2023-04-02T15:36:05.647Z,101045.00
2023-04-02T15:41:46.086Z,101053.40
2023-04-02T15:47:18.498Z,101058.00
2023-04-02T15:53:03.327Z,101074.40
2023-04-02T15:58:24.156Z,101078.60
2023-04-02T16:04:12.821Z,101084.60
2023-04-02T16:09:30.606Z,101096.00
2023-04-02T16:14:46.746Z,101103.60
2023-04-02T16:20:17.290Z,101112.80
2023-04-02T16:25:24.435Z,101123.60
2023-04-02T16:30:44.261Z,101137.80
2023-04-02T16:36:27.009Z,101146.20
2023-04-02T16:42:32.384Z,101156.60
2023-04-02T16:48:12.535Z,101172.60
2023-04-02T16:54:00.984Z,101178.20
2023-04-02T16:59:33.106Z,101190.40
2023-04-02T17:05:07.184Z,101180.00
2023-04-02T17:10:31.425Z,101205.80
2023-04-02T17:15:39.402Z,101217.00
2023-04-02T17:20:42.341Z,101229.00
2023-04-02T17:25:58.139Z,101235.00
2023-04-02T17:31:01.649Z,101244.80
2023-04-02T17:36:15.613Z,101256.00
2023-04-02T17:41:42.537Z,101268.00
2023-04-02T17:47:16.494Z,101284.40
2023-04-02T17:53:01.516Z,101294.00
2023-04-02T17:58:40.530Z,101310.00
2023-04-02T18:04:01.230Z,101309.60
2023-04-02T18:09:29.492Z,101316.80
2023-04-02T18:14:48.773Z,101335.00
2023-04-02T18:20:03.877Z,101342.80
2023-04-02T18:25:55.665Z,101350.20
2023-04-02T18:31:29.716Z,101364.60
2023-04-02T18:37:01.143Z,101364.20
2023-04-02T18:42:45.838Z,101380.40
2023-04-02T18:48:04.289Z,101394.20
2023-04-02T18:53:20.533Z,101394.00
2023-04-02T18:58:33.099Z,101400.80
2023-04-02T19:04:08.934Z,101409.40
2023-04-02T19:09:26.097Z,101415.60
2023-04-02T19:14:31.813Z,101420.00
2023-04-02T19:19:56.194Z,101435.40
2023-04-02T19:25:44.582Z,101431.80
2023-04-02T19:31:23.221Z,101443.80
2023-04-02T19:36:48.813Z,101453.00
2023-04-02T19:42:00.226Z,101462.60
2023-04-02T19:47:03.305Z,101465.60
2023-04-02T19:52:08.749Z,101472.20
2023-04-02T19:57:17.490Z,101477.40
2023-04-02T20:02:20.222Z,101481.40
2023-04-02T20:07:23.067Z,101484.80
2023-04-02T20:12:28.754Z,101489.60
2023-04-02T20:17:31.438Z,101494.80
2023-04-02T20:22:34.215Z,101496.00
2023-04-02T20:27:36.842Z,101514.20
2023-04-02T20:32:41.404Z,101520.20
2023-04-02T20:37:49.935Z,101518.80
2023-04-02T20:42:53.455Z,101524.80
2023-04-02T20:47:56.733Z,101530.00
2023-04-02T20:53:03.979Z,101541.80
2023-04-02T20:58:06.598Z,101545.60
2023-04-02T21:03:11.274Z,101550.60
2023-04-02T21:08:14.666Z,101551.60
2023-04-02T21:13:17.257Z,101559.00
2023-04-02T21:18:19.788Z,101565.80
2023-04-02T21:23:24.351Z,101572.80
2023-04-02T21:28:28.616Z,101570.60
2023-04-02T21:33:38.373Z,101582.20
2023-04-02T21:38:47.522Z,101585.80
2023-04-02T21:43:50.970Z,101590.40
2023-04-02T21:48:59.052Z,101594.00
2023-04-02T21:54:03.349Z,101599.00
2023-04-02T21:59:09.133Z,101595.00
2023-04-02T22:04:24.549Z,101602.00
2023-04-02T22:09:29.539Z,101599.00
2023-04-02T22:14:36.003Z,101608.00
2023-04-02T22:19:38.688Z,101611.80
2023-04-02T22:24:41.243Z,101620.40
2023-04-02T22:29:43.877Z,101623.20
2023-04-02T22:34:46.732Z,101628.80
2023-04-02T22:39:49.366Z,101624.80
2023-04-02T22:44:58.301Z,101625.60
2023-04-02T22:50:02.086Z,101631.80
2023-04-02T22:55:06.399Z,101642.80
2023-04-02T23:00:15.122Z,101638.00
2023-04-02T23:05:17.860Z,101643.60
2023-04-02T23:10:23.359Z,101643.20
2023-04-02T23:15:31.888Z,101650.60
2023-04-02T23:20:37.745Z,101647.60
2023-04-02T23:25:41.319Z,101649.20
2023-04-02T23:30:44.286Z,101656.60
2023-04-02T23:35:47.859Z,101657.60
2023-04-02T23:40:50.500Z,101652.00
2023-04-02T23:45:57.664Z,101657.80
2023-04-02T23:51:00.400Z,101656.20
2023-04-02T23:56:03.426Z,101661.20
